sensor_id;sensor_type;location;lat;lon;timestamp;pressure;altitude;pressure_sealevel;temperature;humidity
76358;BME280;65185;21.060;105.826;2022-11-24T00:01:16;101375.66;;;23.84;100.00
76358;BME280;65185;21.060;105.826;2022-11-24T00:03:44;101381.47;;;23.82;100.00
76358;BME280;65185;21.060;105.826;2022-11-24T00:06:14;101385.66;;;23.80;100.00
76358;BME280;65185;21.060;105.826;2022-11-24T00:08:43;101386.97;;;23.82;100.00
76358;BME280;65185;21.060;105.826;2022-11-24T00:11:15;101391.63;;;23.82;100.00
76358;BME280;65185;21.060;105.826;2022-11-24T00:13:43;101395.50;;;23.81;100.00
76358;BME280;65185;21.060;105.826;2022-11-24T00:18:39;101407.97;;;23.78;100.00
76358;BME280;65185;21.060;105.826;2022-11-24T00:21:06;101407.47;;;23.76;100.00
76358;BME280;65185;21.060;105.826;2022-11-24T00:23:34;101418.13;;;23.78;100.00
76358;BME280;65185;21.060;105.826;2022-11-24T00:26:13;101428.28;;;23.77;100.00
76358;BME280;65185;21.060;105.826;2022-11-24T00:28:41;101435.38;;;23.78;100.00
76358;BME280;65185;21.060;105.826;2022-11-24T00:31:31;101439.25;;;23.77;100.00
76358;BME280;65185;21.060;105.826;2022-11-24T00:34:00;101443.63;;;23.78;100.00
76358;BME280;65185;21.060;105.826;2022-11-24T00:36:29;101444.75;;;23.77;100.00
76358;BME280;65185;21.060;105.826;2022-11-24T00:38:59;101454.91;;;23.77;100.00
76358;BME280;65185;21.060;105.826;2022-11-24T00:41:26;101452.16;;;23.77;100.00
76358;BME280;65185;21.060;105.826;2022-11-24T00:43:53;101454.09;;;23.76;100.00
76358;BME280;65185;21.060;105.826;2022-11-24T00:46:21;101454.41;;;23.75;100.00
76358;BME280;65185;21.060;105.826;2022-11-24T00:48:48;101470.41;;;23.73;100.00
76358;BME280;65185;21.060;105.826;2022-11-24T00:51:20;101472.34;;;23.72;100.00
76358;BME280;65185;21.060;105.826;2022-11-24T00:53:47;101475.09;;;23.72;100.00
76358;BME280;65185;21.060;105.826;2022-11-24T00:56:14;101472.34;;;23.72;100.00
76358;BME280;65185;21.060;105.826;2022-11-24T00:58:41;101471.22;;;23.73;100.00
76358;BME280;65185;21.060;105.826;2022-11-24T01:01:11;101485.75;;;23.74;100.00
76358;BME280;65185;21.060;105.826;2022-11-24T01:03:38;101473.97;;;23.73;100.00
76358;BME280;65185;21.060;105.826;2022-11-24T01:06:08;101484.94;;;23.73;100.00
76358;BME280;65185;21.060;105.826;2022-11-24T01:08:36;101483.16;;;23.77;100.00
76358;BME280;65185;21.060;105.826;2022-11-24T01:11:17;101484.13;;;23.73;100.00
76358;BME280;65185;21.060;105.826;2022-11-24T01:13:46;101490.25;;;23.70;100.00
76358;BME280;65185;21.060;105.826;2022-11-24T01:18:44;101493.66;;;23.67;100.00
76358;BME280;65185;21.060;105.826;2022-11-24T01:21:12;101500.41;;;23.69;100.00
76358;BME280;65185;21.060;105.826;2022-11-24T01:23:39;101503.16;;;23.69;100.00
76358;BME280;65185;21.060;105.826;2022-11-24T01:26:11;101500.91;;;23.71;100.00
76358;BME280;65185;21.060;105.826;2022-11-24T01:28:38;101513.50;;;23.72;100.00
76358;BME280;65185;21.060;105.826;2022-11-24T01:31:06;101508.81;;;23.73;100.00
76358;BME280;65185;21.060;105.826;2022-11-24T01:33:34;101516.69;;;23.74;100.00
76358;BME280;65185;21.060;105.826;2022-11-24T01:36:02;101519.44;;;23.74;100.00
76358;BME280;65185;21.060;105.826;2022-11-24T01:38:30;101522.19;;;23.74;100.00
76358;BME280;65185;21.060;105.826;2022-11-24T01:41:11;101524.94;;;23.74;100.00
76358;BME280;65185;21.060;105.826;2022-11-24T01:43:39;101538.63;;;23.74;100.00
76358;BME280;65185;21.060;105.826;2022-11-24T01:51:44;101532.53;;;23.77;100.00
76358;BME280;65185;21.060;105.826;2022-11-24T01:54:21;101533.16;;;23.74;100.00
76358;BME280;65185;21.060;105.826;2022-11-24T01:56:53;101536.72;;;23.75;100.00
76358;BME280;65185;21.060;105.826;2022-11-24T01:59:23;101537.19;;;23.77;100.00
76358;BME280;65185;21.060;105.826;2022-11-24T02:01:51;101528.16;;;23.76;100.00
76358;BME280;65185;21.060;105.826;2022-11-24T02:04:23;101529.91;;;23.81;100.00
76358;BME280;65185;21.060;105.826;2022-11-24T02:06:52;101529.13;;;23.80;100.00
76358;BME280;65185;21.060;105.826;2022-11-24T02:09:50;101525.09;;;23.78;100.00
76358;BME280;65185;21.060;105.826;2022-11-24T02:12:17;101529.13;;;23.80;100.00
76358;BME280;65185;21.060;105.826;2022-11-24T02:14:45;101531.84;;;23.80;100.00
76358;BME280;65185;21.060;105.826;2022-11-24T02:17:11;101531.22;;;23.83;100.00
76358;BME280;65185;21.060;105.826;2022-11-24T02:27:33;101533.47;;;23.90;100.00
76358;BME280;65185;21.060;105.826;2022-11-24T02:30:00;101535.88;;;23.91;100.00
76358;BME280;65185;21.060;105.826;2022-11-24T02:32:27;101538.78;;;23.95;100.00
76358;BME280;65185;21.060;105.826;2022-11-24T02:35:04;101530.22;;;23.96;100.00
76358;BME280;65185;21.060;105.826;2022-11-24T02:37:31;101534.44;;;23.94;100.00
76358;BME280;65185;21.060;105.826;2022-11-24T02:39:58;101536.38;;;23.93;100.00
76358;BME280;65185;21.060;105.826;2022-11-24T02:42:31;101537.50;;;23.92;100.00
76358;BME280;65185;21.060;105.826;2022-11-24T02:45:00;101534.75;;;23.92;100.00
76358;BME280;65185;21.060;105.826;2022-11-24T02:47:27;101536.38;;;23.93;100.00
76358;BME280;65185;21.060;105.826;2022-11-24T02:49:54;101537.66;;;23.96;100.00
76358;BME280;65185;21.060;105.826;2022-11-24T02:52:21;101539.06;;;24.02;100.00
76358;BME280;65185;21.060;105.826;2022-11-24T02:54:48;101529.88;;;24.07;100.00
76358;BME280;65185;21.060;105.826;2022-11-24T02:57:15;101527.28;;;24.10;100.00
76358;BME280;65185;21.060;105.826;2022-11-24T02:59:41;101531.78;;;24.15;100.00
76358;BME280;65185;21.060;105.826;2022-11-24T03:02:08;101529.25;;;24.18;100.00
76358;BME280;65185;21.060;105.826;2022-11-24T03:04:35;101534.53;;;24.23;100.00
76358;BME280;65185;21.060;105.826;2022-11-24T03:07:02;101531.13;;;24.26;100.00
76358;BME280;65185;21.060;105.826;2022-11-24T03:09:29;101534.81;;;24.30;100.00
76358;BME280;65185;21.060;105.826;2022-11-24T03:11:56;101529.81;;;24.32;100.00
76358;BME280;65185;21.060;105.826;2022-11-24T03:14:23;101538.69;;;24.38;100.00
76358;BME280;65185;21.060;105.826;2022-11-24T03:16:50;101535.94;;;24.38;100.00
76358;BME280;65185;21.060;105.826;2022-11-24T03:19:17;101527.38;;;24.39;100.00
76358;BME280;65185;21.060;105.826;2022-11-24T03:21:44;101529.97;;;24.36;100.00
76358;BME280;65185;21.060;105.826;2022-11-24T03:24:10;101531.13;;;24.35;100.00
76358;BME280;65185;21.060;105.826;2022-11-24T03:26:37;101528.00;;;24.36;100.00
76358;BME280;65185;21.060;105.826;2022-11-24T03:29:04;101523.00;;;24.38;100.00
76358;BME280;65185;21.060;105.826;2022-11-24T03:31:31;101526.56;;;24.39;100.00
76358;BME280;65185;21.060;105.826;2022-11-24T03:33:58;101517.19;;;24.40;100.00
76358;BME280;65185;21.060;105.826;2022-11-24T03:36:25;101523.16;;;24.42;100.00
76358;BME280;65185;21.060;105.826;2022-11-24T03:38:52;101517.34;;;24.43;100.00
76358;BME280;65185;21.060;105.826;2022-11-24T03:41:19;101511.53;;;24.45;100.00
76358;BME280;65185;21.060;105.826;2022-11-24T03:43:46;101515.06;;;24.46;100.00
76358;BME280;65185;21.060;105.826;2022-11-24T03:46:12;101515.53;;;24.48;100.00
76358;BME280;65185;21.060;105.826;2022-11-24T03:48:39;101515.88;;;24.46;100.00
76358;BME280;65185;21.060;105.826;2022-11-24T03:51:06;101506.84;;;24.46;100.00
76358;BME280;65185;21.060;105.826;2022-11-24T03:53:33;101510.22;;;24.42;100.00
76358;BME280;65185;21.060;105.826;2022-11-24T03:56:00;101508.28;;;24.43;100.00
76358;BME280;65185;21.060;105.826;2022-11-24T03:58:28;101507.81;;;24.41;100.00
76358;BME280;65185;21.060;105.826;2022-11-24T04:00:55;101505.88;;;24.41;100.00
76358;BME280;65185;21.060;105.826;2022-11-24T04:03:22;101496.81;;;24.41;100.00
76358;BME280;65185;21.060;105.826;2022-11-24T04:05:49;101496.81;;;24.41;100.00
76358;BME280;65185;21.060;105.826;2022-11-24T04:08:16;101495.06;;;24.36;100.00
76358;BME280;65185;21.060;105.826;2022-11-24T04:10:43;101500.56;;;24.36;100.00
76358;BME280;65185;21.060;105.826;2022-11-24T04:13:13;101502.50;;;24.36;100.00
76358;BME280;65185;21.060;105.826;2022-11-24T04:15:42;101495.41;;;24.35;100.00
76358;BME280;65185;21.060;105.826;2022-11-24T04:18:10;101493.31;;;24.32;100.00
76358;BME280;65185;21.060;105.826;2022-11-24T04:20:37;101488.97;;;24.31;100.00
76358;BME280;65185;21.060;105.826;2022-11-24T04:23:05;101490.91;;;24.30;100.00
76358;BME280;65185;21.060;105.826;2022-11-24T04:25:32;101483.97;;;24.33;100.00
76358;BME280;65185;21.060;105.826;2022-11-24T04:27:59;101485.09;;;24.32;100.00
76358;BME280;65185;21.060;105.826;2022-11-24T04:30:27;101474.09;;;24.32;100.00
76358;BME280;65185;21.060;105.826;2022-11-24T04:32:54;101475.22;;;24.31;100.00
76358;BME280;65185;21.060;105.826;2022-11-24T04:35:22;101471.34;;;24.32;100.00
76358;BME280;65185;21.060;105.826;2022-11-24T04:37:49;101474.78;;;24.29;100.00
76358;BME280;65185;21.060;105.826;2022-11-24T04:40:17;101466.53;;;24.29;100.00
76358;BME280;65185;21.060;105.826;2022-11-24T04:42:51;101470.41;;;24.28;100.00
76358;BME280;65185;21.060;105.826;2022-11-24T04:45:19;101466.53;;;24.29;100.00
76358;BME280;65185;21.060;105.826;2022-11-24T04:47:46;101462.63;;;24.30;100.00
76358;BME280;65185;21.060;105.826;2022-11-24T04:50:13;101456.00;;;24.31;100.00
76358;BME280;65185;21.060;105.826;2022-11-24T04:52:40;101449.41;;;24.32;100.00
76358;BME280;65185;21.060;105.826;2022-11-24T04:55:07;101444.03;;;24.35;100.00
76358;BME280;65185;21.060;105.826;2022-11-24T04:57:34;101437.91;;;24.38;100.00
76358;BME280;65185;21.060;105.826;2022-11-24T05:00:01;101430.47;;;24.39;100.00
76358;BME280;65185;21.060;105.826;2022-11-24T05:02:27;101426.91;;;24.38;100.00
76358;BME280;65185;21.060;105.826;2022-11-24T05:04:54;101423.84;;;24.40;100.00
76358;BME280;65185;21.060;105.826;2022-11-24T05:07:21;101424.66;;;24.40;100.00
76358;BME280;65185;21.060;105.826;2022-11-24T05:09:48;101419.94;;;24.41;100.00
76358;BME280;65185;21.060;105.826;2022-11-24T05:12:33;101418.47;;;24.43;100.00
76358;BME280;65185;21.060;105.826;2022-11-24T05:15:02;101416.22;;;24.46;100.00
76358;BME280;65185;21.060;105.826;2022-11-24T05:17:32;101412.50;;;24.41;100.00
76358;BME280;65185;21.060;105.826;2022-11-24T05:19:59;101404.94;;;24.38;100.00
76358;BME280;65185;21.060;105.826;2022-11-24T05:22:28;101402.53;;;24.37;100.00
76358;BME280;65185;21.060;105.826;2022-11-24T05:24:54;101399.47;;;24.38;100.00
76358;BME280;65185;21.060;105.826;2022-11-24T05:27:22;101398.66;;;24.38;100.00
76358;BME280;65185;21.060;105.826;2022-11-24T05:29:49;101387.34;;;24.39;100.00
76358;BME280;65185;21.060;105.826;2022-11-24T05:32:16;101378.31;;;24.39;100.00
76358;BME280;65185;21.060;105.826;2022-11-24T05:34:42;101382.84;;;24.35;100.00
76358;BME280;65185;21.060;105.826;2022-11-24T05:37:09;101380.56;;;24.37;100.00
76358;BME280;65185;21.060;105.826;2022-11-24T05:39:37;101373.63;;;24.39;100.00
76358;BME280;65185;21.060;105.826;2022-11-24T05:42:05;101368.13;;;24.39;100.00
76358;BME280;65185;21.060;105.826;2022-11-24T05:44:51;101370.06;;;24.39;100.00
76358;BME280;65185;21.060;105.826;2022-11-24T05:47:18;101360.22;;;24.38;100.00
76358;BME280;65185;21.060;105.826;2022-11-24T05:49:45;101362.97;;;24.38;100.00
76358;BME280;65185;21.060;105.826;2022-11-24T05:52:12;101352.31;;;24.36;100.00
76358;BME280;65185;21.060;105.826;2022-11-24T05:54:39;101355.41;;;24.35;100.00
76358;BME280;65185;21.060;105.826;2022-11-24T05:57:06;101345.69;;;24.37;100.00
76358;BME280;65185;21.060;105.826;2022-11-24T05:59:33;101343.75;;;24.38;100.00
76358;BME280;65185;21.060;105.826;2022-11-24T06:02:00;101341.00;;;24.38;100.00
76358;BME280;65185;21.060;105.826;2022-11-24T06:04:27;101328.06;;;24.38;100.00
76358;BME280;65185;21.060;105.826;2022-11-24T06:06:54;101342.94;;;24.37;100.00
76358;BME280;65185;21.060;105.826;2022-11-24T06:09:21;101328.88;;;24.39;100.00
76358;BME280;65185;21.060;105.826;2022-11-24T06:11:48;101322.91;;;24.37;100.00
76358;BME280;65185;21.060;105.826;2022-11-24T06:14:15;101318.91;;;24.34;100.00
76358;BME280;65185;21.060;105.826;2022-11-24T06:16:42;101320.84;;;24.34;100.00
76358;BME280;65185;21.060;105.826;2022-11-24T06:19:09;101318.44;;;24.32;100.00
76358;BME280;65185;21.060;105.826;2022-11-24T06:21:36;101314.75;;;24.28;100.00
76358;BME280;65185;21.060;105.826;2022-11-24T06:24:04;101312.53;;;24.22;100.00
76358;BME280;65185;21.060;105.826;2022-11-24T06:26:31;101302.69;;;24.21;100.00
76358;BME280;65185;21.060;105.826;2022-11-24T06:28:58;101298.81;;;24.22;100.00
76358;BME280;65185;21.060;105.826;2022-11-24T06:31:24;101298.69;;;24.18;100.00
76358;BME280;65185;21.060;105.826;2022-11-24T06:33:51;101299.13;;;24.20;100.00
76358;BME280;65185;21.060;105.826;2022-11-24T06:36:18;101285.06;;;24.22;100.00
76358;BME280;65185;21.060;105.826;2022-11-24T06:38:45;101291.50;;;24.26;100.00
76358;BME280;65185;21.060;105.826;2022-11-24T06:41:14;101294.72;;;24.28;100.00
76358;BME280;65185;21.060;105.826;2022-11-24T06:43:41;101287.41;;;24.32;100.00
76358;BME280;65185;21.060;105.826;2022-11-24T06:46:08;101284.03;;;24.35;100.00
76358;BME280;65185;21.060;105.826;2022-11-24T06:48:35;101288.84;;;24.38;100.00
76358;BME280;65185;21.060;105.826;2022-11-24T06:51:05;101288.84;;;24.38;100.00
76358;BME280;65185;21.060;105.826;2022-11-24T06:53:37;101288.84;;;24.38;100.00
76358;BME280;65185;21.060;105.826;2022-11-24T06:56:09;101281.59;;;24.33;100.00
76358;BME280;65185;21.060;105.826;2022-11-24T06:58:42;101286.63;;;24.31;100.00
76358;BME280;65185;21.060;105.826;2022-11-24T07:01:14;101285.19;;;24.25;100.00
76358;BME280;65185;21.060;105.826;2022-11-24T07:03:41;101289.88;;;24.25;100.00
76358;BME280;65185;21.060;105.826;2022-11-24T07:06:08;101285.06;;;24.22;100.00
76358;BME280;65185;21.060;105.826;2022-11-24T07:08:35;101290.09;;;24.20;100.00
76358;BME280;65185;21.060;105.826;2022-11-24T07:11:06;101282.34;;;24.22;100.00
76358;BME280;65185;21.060;105.826;2022-11-24T07:13:33;101288.97;;;24.21;100.00
76358;BME280;65185;21.060;105.826;2022-11-24T07:16:17;101285.72;;;24.19;100.00
76358;BME280;65185;21.060;105.826;2022-11-24T07:18:45;101290.25;;;24.15;100.00
76358;BME280;65185;21.060;105.826;2022-11-24T07:21:12;101282.81;;;24.15;100.00
76358;BME280;65185;21.060;105.826;2022-11-24T07:23:39;101284.78;;;24.15;100.00
76358;BME280;65185;21.060;105.826;2022-11-24T07:26:17;101284.44;;;24.16;100.00
76358;BME280;65185;21.060;105.826;2022-11-24T07:28:45;101281.56;;;24.13;100.00
76358;BME280;65185;21.060;105.826;2022-11-24T07:31:14;101274.91;;;24.14;100.00
76358;BME280;65185;21.060;105.826;2022-11-24T07:33:42;101272.53;;;24.12;100.00
76358;BME280;65185;21.060;105.826;2022-11-24T07:36:09;101274.47;;;24.12;100.00
76358;BME280;65185;21.060;105.826;2022-11-24T07:38:36;101280.28;;;24.10;100.00
76358;BME280;65185;21.060;105.826;2022-11-24T07:41:05;101279.81;;;24.08;100.00
76358;BME280;65185;21.060;105.826;2022-11-24T07:43:34;101283.72;;;24.07;100.00
76358;BME280;65185;21.060;105.826;2022-11-24T07:46:02;101284.69;;;24.02;100.00
76358;BME280;65185;21.060;105.826;2022-11-24T07:48:29;101278.94;;;23.95;100.00
76358;BME280;65185;21.060;105.826;2022-11-24T07:51:01;101277.97;;;23.91;100.00
76358;BME280;65185;21.060;105.826;2022-11-24T07:53:28;101281.53;;;23.92;100.00
76358;BME280;65185;21.060;105.826;2022-11-24T07:55:57;101277.53;;;23.89;100.00
76358;BME280;65185;21.060;105.826;2022-11-24T07:58:28;101275.09;;;23.88;100.00
76358;BME280;65185;21.060;105.826;2022-11-24T08:00:56;101279.78;;;23.87;100.00
76358;BME280;65185;21.060;105.826;2022-11-24T08:03:23;101283.00;;;23.89;100.00
76358;BME280;65185;21.060;105.826;2022-11-24T08:05:55;101287.00;;;23.92;100.00
76358;BME280;65185;21.060;105.826;2022-11-24T08:08:22;101285.41;;;23.91;100.00
76358;BME280;65185;21.060;105.826;2022-11-24T08:10:49;101278.78;;;23.92;100.00
76358;BME280;65185;21.060;105.826;2022-11-24T08:13:17;101287.81;;;23.92;100.00
76358;BME280;65185;21.060;105.826;2022-11-24T08:15:44;101281.53;;;23.92;100.00
76358;BME280;65185;21.060;105.826;2022-11-24T08:18:11;101279.25;;;23.94;100.00
76358;BME280;65185;21.060;105.826;2022-11-24T08:20:38;101291.50;;;23.96;100.00
76358;BME280;65185;21.060;105.826;2022-11-24T08:23:05;101293.59;;;23.99;100.00
76358;BME280;65185;21.060;105.826;2022-11-24T08:25:32;101290.84;;;23.99;100.00
76358;BME280;65185;21.060;105.826;2022-11-24T08:28:00;101292.47;;;24.00;100.00
76358;BME280;65185;21.060;105.826;2022-11-24T08:30:28;101296.00;;;24.01;100.00
76358;BME280;65185;21.060;105.826;2022-11-24T08:32:58;101284.06;;;23.97;100.00
76358;BME280;65185;21.060;105.826;2022-11-24T08:35:26;101292.66;;;23.95;100.00
76358;BME280;65185;21.060;105.826;2022-11-24T08:37:53;101284.63;;;23.90;100.00
76358;BME280;65185;21.060;105.826;2022-11-24T08:40:20;101281.88;;;23.90;100.00
76358;BME280;65185;21.060;105.826;2022-11-24T08:42:47;101285.75;;;23.89;100.00
76358;BME280;65185;21.060;105.826;2022-11-24T08:45:14;101284.13;;;23.88;100.00
76358;BME280;65185;21.060;105.826;2022-11-24T08:47:41;101284.94;;;23.89;100.00
76358;BME280;65185;21.060;105.826;2022-11-24T08:50:08;101299.91;;;23.91;100.00
76358;BME280;65185;21.060;105.826;2022-11-24T08:52:35;101290.09;;;23.90;100.00
76358;BME280;65185;21.060;105.826;2022-11-24T08:55:02;101293.19;;;23.89;100.00
76358;BME280;65185;21.060;105.826;2022-11-24T08:57:29;101284.94;;;23.89;100.00
76358;BME280;65185;21.060;105.826;2022-11-24T08:59:56;101285.59;;;23.86;100.00
76358;BME280;65185;21.060;105.826;2022-11-24T09:02:23;101282.53;;;23.87;100.00
76358;BME280;65185;21.060;105.826;2022-11-24T09:04:50;101287.38;;;23.90;100.00
76358;BME280;65185;21.060;105.826;2022-11-24T09:07:17;101284.94;;;23.89;100.00
76358;BME280;65185;21.060;105.826;2022-11-24T09:09:44;101284.63;;;23.90;100.00
76358;BME280;65185;21.060;105.826;2022-11-24T09:12:11;101293.97;;;23.89;100.00
76358;BME280;65185;21.060;105.826;2022-11-24T09:14:38;101284.63;;;23.90;100.00
76358;BME280;65185;21.060;105.826;2022-11-24T09:17:04;101294.78;;;23.90;100.00
76358;BME280;65185;21.060;105.826;2022-11-24T09:19:31;101289.63;;;23.88;100.00
76358;BME280;65185;21.060;105.826;2022-11-24T09:21:58;101284.94;;;23.89;100.00
76358;BME280;65185;21.060;105.826;2022-11-24T09:24:25;101288.50;;;23.89;100.00
76358;BME280;65185;21.060;105.826;2022-11-24T09:26:52;101284.47;;;23.87;100.00
76358;BME280;65185;21.060;105.826;2022-11-24T09:29:20;101284.97;;;23.80;100.00
76358;BME280;65185;21.060;105.826;2022-11-24T09:31:47;101288.41;;;23.77;100.00
76358;BME280;65185;21.060;105.826;2022-11-24T09:34:15;101286.47;;;23.78;100.00
76358;BME280;65185;21.060;105.826;2022-11-24T09:36:42;101296.63;;;23.77;100.00
76358;BME280;65185;21.060;105.826;2022-11-24T09:39:10;101286.78;;;23.76;100.00
76358;BME280;65185;21.060;105.826;2022-11-24T09:47:38;101307.59;;;23.77;100.00
76358;BME280;65185;21.060;105.826;2022-11-24T09:50:24;101313.88;;;23.78;100.00
76358;BME280;65185;21.060;105.826;2022-11-24T09:58:42;101319.06;;;23.71;100.00
76358;BME280;65185;21.060;105.826;2022-11-24T10:01:40;101312.59;;;23.75;100.00
76358;BME280;65185;21.060;105.826;2022-11-24T10:04:41;101319.38;;;23.78;100.00
76358;BME280;65185;21.060;105.826;2022-11-24T10:09:53;101319.75;;;23.68;100.00
76358;BME280;65185;21.060;105.826;2022-11-24T10:23:03;101347.19;;;23.68;100.00
76358;BME280;65185;21.060;105.826;2022-11-24T10:25:56;101348.13;;;23.63;100.00
76358;BME280;65185;21.060;105.826;2022-11-24T10:31:37;101347.50;;;23.57;100.00
76358;BME280;65185;21.060;105.826;2022-11-24T10:34:20;101345.13;;;23.56;100.00
76358;BME280;65185;21.060;105.826;2022-11-24T10:44:40;101356.44;;;23.46;100.00
76358;BME280;65185;21.060;105.826;2022-11-24T10:47:17;101364.66;;;23.46;100.00
76358;BME280;65185;21.060;105.826;2022-11-24T10:49:54;101358.66;;;23.44;100.00
76358;BME280;65185;21.060;105.826;2022-11-24T10:52:24;101361.25;;;23.49;100.00
76358;BME280;65185;21.060;105.826;2022-11-24T10:55:04;101373.34;;;23.48;100.00
76358;BME280;65185;21.060;105.826;2022-11-24T10:57:33;101370.63;;;23.48;100.00
76358;BME280;65185;21.060;105.826;2022-11-24T11:00:03;101380.28;;;23.45;100.00
76358;BME280;65185;21.060;105.826;2022-11-24T11:02:49;101387.38;;;23.46;100.00
76358;BME280;65185;21.060;105.826;2022-11-24T11:08:22;101389.00;;;23.47;100.00
76358;BME280;65185;21.060;105.826;2022-11-24T11:13:37;101398.84;;;23.48;100.00
76358;BME280;65185;21.060;105.826;2022-11-24T11:18:59;101407.88;;;23.49;100.00
76358;BME280;65185;21.060;105.826;2022-11-24T11:21:36;101411.41;;;23.49;100.00
76358;BME280;65185;21.060;105.826;2022-11-24T11:24:13;101413.34;;;23.49;100.00
76358;BME280;65185;21.060;105.826;2022-11-24T11:26:43;101406.75;;;23.50;100.00
76358;BME280;65185;21.060;105.826;2022-11-24T11:29:17;101406.56;;;23.46;100.00
76358;BME280;65185;21.060;105.826;2022-11-24T11:32:02;101419.50;;;23.46;100.00
76358;BME280;65185;21.060;105.826;2022-11-24T11:34:34;101409.63;;;23.45;100.00
76358;BME280;65185;21.060;105.826;2022-11-24T11:37:03;101420.59;;;23.45;100.00
76358;BME280;65185;21.060;105.826;2022-11-24T11:39:32;101415.94;;;23.45;100.00
76358;BME280;65185;21.060;105.826;2022-11-24T11:44:37;101425.28;;;23.44;100.00
76358;BME280;65185;21.060;105.826;2022-11-24T11:47:43;101430.75;;;23.44;100.00
76358;BME280;65185;21.060;105.826;2022-11-24T11:50:13;101432.88;;;23.39;100.00
76358;BME280;65185;21.060;105.826;2022-11-24T12:01:20;101441.41;;;23.37;100.00
76358;BME280;65185;21.060;105.826;2022-11-24T12:07:06;101444.81;;;23.34;100.00
76358;BME280;65185;21.060;105.826;2022-11-24T12:10:02;101451.41;;;23.33;100.00
76358;BME280;65185;21.060;105.826;2022-11-24T12:12:44;101461.72;;;23.36;100.00
76358;BME280;65185;21.060;105.826;2022-11-24T12:21:05;101465.25;;;23.37;100.00
76358;BME280;65185;21.060;105.826;2022-11-24T12:26:30;101481.41;;;23.38;100.00
76358;BME280;65185;21.060;105.826;2022-11-24T12:35:16;101488.47;;;23.31;100.00
76358;BME280;65185;21.060;105.826;2022-11-24T12:37:54;101492.34;;;23.30;100.00
76358;BME280;65185;21.060;105.826;2022-11-24T12:48:42;101492.84;;;23.23;100.00
76358;BME280;65185;21.060;105.826;2022-11-24T12:51:18;101496.72;;;23.31;100.00
76358;BME280;65185;21.060;105.826;2022-11-24T12:53:48;101502.03;;;23.27;100.00
76358;BME280;65185;21.060;105.826;2022-11-24T12:56:24;101503.97;;;23.27;100.00
76358;BME280;65185;21.060;105.826;2022-11-24T12:59:16;101498.19;;;23.28;100.00
76358;BME280;65185;21.060;105.826;2022-11-24T13:01:58;101505.59;;;23.28;100.00
76358;BME280;65185;21.060;105.826;2022-11-24T13:07:47;101505.75;;;23.23;100.00
76358;BME280;65185;21.060;105.826;2022-11-24T13:10:38;101508.81;;;23.21;100.00
76358;BME280;65185;21.060;105.826;2022-11-24T13:13:10;101520.56;;;23.21;100.00
76358;BME280;65185;21.060;105.826;2022-11-24T13:27:17;101542.19;;;23.32;100.00
76358;BME280;65185;21.060;105.826;2022-11-24T13:29:50;101542.19;;;23.32;100.00
76358;BME280;65185;21.060;105.826;2022-11-24T13:35:15;101545.72;;;23.32;100.00
76358;BME280;65185;21.060;105.826;2022-11-24T13:37:46;101542.19;;;23.32;100.00
76358;BME280;65185;21.060;105.826;2022-11-24T13:51:26;101556.53;;;23.37;100.00
76358;BME280;65185;21.060;105.826;2022-11-24T13:53:58;101552.84;;;23.33;100.00
76358;BME280;65185;21.060;105.826;2022-11-24T13:56:28;101557.34;;;23.29;100.00
76358;BME280;65185;21.060;105.826;2022-11-24T13:59:16;101555.25;;;23.26;100.00
76358;BME280;65185;21.060;105.826;2022-11-24T14:01:56;101557.00;;;23.31;100.00
76358;BME280;65185;21.060;105.826;2022-11-24T14:04:25;101562.84;;;23.29;100.00
76358;BME280;65185;21.060;105.826;2022-11-24T14:06:56;101558.47;;;23.28;100.00
76358;BME280;65185;21.060;105.826;2022-11-24T14:12:23;101560.88;;;23.30;100.00
76358;BME280;65185;21.060;105.826;2022-11-24T14:15:22;101560.72;;;23.26;100.00
76358;BME280;65185;21.060;105.826;2022-11-24T14:18:11;101557.16;;;23.26;100.00
76358;BME280;65185;21.060;105.826;2022-11-24T14:20:39;101560.09;;;23.29;100.00
76358;BME280;65185;21.060;105.826;2022-11-24T14:23:08;101554.44;;;23.26;100.00
76358;BME280;65185;21.060;105.826;2022-11-24T14:25:36;101558.28;;;23.25;100.00
76358;BME280;65185;21.060;105.826;2022-11-24T14:28:27;101551.69;;;23.26;100.00
76358;BME280;65185;21.060;105.826;2022-11-24T14:31:19;101555.91;;;23.23;100.00
76358;BME280;65185;21.060;105.826;2022-11-24T14:33:48;101559.09;;;23.25;100.00
76358;BME280;65185;21.060;105.826;2022-11-24T14:36:16;101554.63;;;23.29;100.00
76358;BME280;65185;21.060;105.826;2022-11-24T14:38:49;101547.81;;;23.27;100.00
76358;BME280;65185;21.060;105.826;2022-11-24T14:41:25;101556.22;;;23.21;100.00
76358;BME280;65185;21.060;105.826;2022-11-24T14:46:40;101553.13;;;23.14;100.00
76358;BME280;65185;21.060;105.826;2022-11-24T14:49:08;101553.13;;;23.14;100.00
76358;BME280;65185;21.060;105.826;2022-11-24T14:51:37;101551.50;;;23.13;100.00